Portada
METAR-TAF:

METAR-TAF

Aeroports :

Lossiemouth, Escòcia

latitud: 57-43N, longitud: 003-19W, altitud: 13 m

Observació

L'informe es va fer fa 45 minuts, a les 20:50 UTC
Vent 3 kt del Sud/Sud-Est
Temperatura 17°C
Humitat 77%
Pressió 1017 hPa
Visibilitat 10 km o més
sense núvols per sota de 1500 mi sense presència de cumulonimbus.

METAR: EGQS 242050Z 15003KT CAVOK 17/13 Q1017 BLU RMK BLU

Hora: 22:35 (21:35 UTC)

Pronòstic

L'informe es va fer fa 2 hores i 7 minuts, a les 19:28 UTC
Pronòstic vàlid del 24 a les 21 UTC al 25 a les 15 UTC
Vent 4 kt amb direcció variable
Visibilitat 10 km o més
sense núvols per sota de 1500 mi sense presència de cumulonimbus.
Probabilitat 30%
l' 25 a les 00 UTC al 25 a les 06 UTC
Visibilitat: 7000 m
calitja

TAF: EGQS 241928Z 2421/2515 VRB04KT CAVOK PROB30 2500/2506 7000 HZ

Observacions i pronòstics meteorològics de més de 4000 aeroports (METAR i TAF).

Les estacions disponibles són els punts grocs i vermells al mapa.

Posi el ratolí al punt desitjat per veure el nom de l'estació.

Feu clic per veure les observacions i els pronòstics meteorològics.

Per canviar el mapa: feu clic els botons verds amb una creu de color negre per apropar; al botó verd amb un guió per allunyar la imatge; o en les fletxes verdes per a mapes adjacents.


METAR-TAF: